createdAt,value
2023-03-02T00:01:42.735Z,10.60
2023-03-02T00:04:13.280Z,15.80
2023-03-02T00:06:40.655Z,9.00
2023-03-02T00:09:07.963Z,10.60
2023-03-02T00:11:35.484Z,15.90
2023-03-02T00:14:06.187Z,10.20
2023-03-02T00:16:34.618Z,16.70
2023-03-02T00:19:02.285Z,17.40
2023-03-02T00:21:31.686Z,12.30
2023-03-02T00:23:59.083Z,12.60
2023-03-02T00:26:26.670Z,14.30
2023-03-02T00:28:54.300Z,17.80
2023-03-02T00:31:21.647Z,15.70
2023-03-02T00:33:50.902Z,12.00
2023-03-02T00:36:18.550Z,8.00
2023-03-02T00:38:47.494Z,7.40
2023-03-02T00:41:16.053Z,11.70
2023-03-02T00:43:43.690Z,15.30
2023-03-02T00:46:13.430Z,11.80
2023-03-02T00:48:41.764Z,10.20
2023-03-02T00:53:43.730Z,13.70
2023-03-02T00:56:12.596Z,14.80
2023-03-02T00:58:42.270Z,12.30
2023-03-02T01:01:12.070Z,11.90
2023-03-02T01:03:42.744Z,8.80
2023-03-02T01:06:18.326Z,11.50
2023-03-02T01:08:46.786Z,13.60
2023-03-02T01:11:15.901Z,11.70
2023-03-02T01:13:44.154Z,11.50
2023-03-02T01:16:12.174Z,11.20
2023-03-02T01:18:44.568Z,13.70
2023-03-02T01:21:14.200Z,10.30
2023-03-02T01:23:42.229Z,14.70
2023-03-02T01:26:10.411Z,9.70
2023-03-02T01:28:39.140Z,11.20
2023-03-02T01:31:07.245Z,17.90
2023-03-02T01:33:35.461Z,10.20
2023-03-02T01:36:06.973Z,13.20
2023-03-02T01:38:34.929Z,9.00
2023-03-02T01:41:02.525Z,9.20
2023-03-02T01:43:31.173Z,8.60
2023-03-02T01:46:18.296Z,14.30
2023-03-02T01:48:58.084Z,10.80
2023-03-02T01:51:43.741Z,8.50
2023-03-02T01:54:17.018Z,8.90
2023-03-02T01:56:44.980Z,11.90
2023-03-02T01:59:14.413Z,18.70
2023-03-02T02:01:44.587Z,15.10
2023-03-02T02:04:12.203Z,11.30
2023-03-02T02:06:44.933Z,10.90
2023-03-02T02:09:14.349Z,12.70
2023-03-02T02:11:43.894Z,21.80
2023-03-02T02:14:11.991Z,10.10
2023-03-02T02:16:41.933Z,8.20
2023-03-02T02:19:54.672Z,8.20
2023-03-02T02:22:32.662Z,11.20
2023-03-02T02:25:09.828Z,10.10
2023-03-02T02:27:37.958Z,11.10
2023-03-02T02:30:06.584Z,14.20
2023-03-02T02:32:36.412Z,13.30
2023-03-02T02:35:11.438Z,10.00
2023-03-02T02:37:55.587Z,9.80
2023-03-02T02:40:56.623Z,12.80
2023-03-02T02:43:28.065Z,10.00
2023-03-02T02:45:57.231Z,16.10
2023-03-02T02:48:30.892Z,13.50
2023-03-02T02:51:03.199Z,9.90
2023-03-02T02:53:46.795Z,9.50
2023-03-02T02:56:15.637Z,12.80
2023-03-02T02:58:50.462Z,10.40
2023-03-02T03:01:20.315Z,13.50
2023-03-02T03:04:03.150Z,9.90
2023-03-02T03:06:41.901Z,20.20
2023-03-02T03:09:10.596Z,14.30
2023-03-02T03:11:57.641Z,9.40
2023-03-02T03:14:36.743Z,7.90
2023-03-02T03:17:11.753Z,9.90
2023-03-02T03:19:45.197Z,13.30
2023-03-02T03:24:42.871Z,9.60
2023-03-02T03:27:13.484Z,10.60
2023-03-02T03:29:48.366Z,12.10
2023-03-02T03:32:19.473Z,15.00
2023-03-02T03:34:52.216Z,10.60
2023-03-02T03:37:24.378Z,14.40
2023-03-02T03:39:52.976Z,8.80
2023-03-02T03:42:22.412Z,9.20
2023-03-02T03:44:50.618Z,10.20
2023-03-02T03:47:18.600Z,12.60
2023-03-02T03:49:46.875Z,9.60
2023-03-02T03:52:14.783Z,9.30
2023-03-02T03:54:43.093Z,10.90
2023-03-02T03:57:11.849Z,11.80
2023-03-02T03:59:40.162Z,13.00
2023-03-02T04:02:10.986Z,8.80
2023-03-02T04:04:42.796Z,15.40
2023-03-02T04:07:20.949Z,13.40
2023-03-02T04:09:48.614Z,12.90
2023-03-02T04:12:22.039Z,11.60
2023-03-02T04:14:53.180Z,11.50
2023-03-02T04:17:20.905Z,6.90
2023-03-02T04:19:52.115Z,8.30
2023-03-02T04:22:20.430Z,8.90
2023-03-02T04:24:49.094Z,15.60
2023-03-02T04:27:17.938Z,14.30
2023-03-02T04:29:47.031Z,12.50
2023-03-02T04:32:15.085Z,11.80
2023-03-02T04:34:45.306Z,7.50
2023-03-02T04:37:15.688Z,8.40
2023-03-02T04:39:47.018Z,15.00
2023-03-02T04:42:21.047Z,16.80
2023-03-02T04:44:49.034Z,11.80
2023-03-02T04:47:17.245Z,15.40
2023-03-02T04:49:45.573Z,10.00
2023-03-02T04:52:13.112Z,10.50
2023-03-02T04:54:40.723Z,7.50
2023-03-02T04:57:08.344Z,13.90
2023-03-02T04:59:39.685Z,8.60
2023-03-02T05:02:07.356Z,7.20
2023-03-02T05:04:40.874Z,13.30
2023-03-02T05:07:08.473Z,12.70
2023-03-02T05:09:36.376Z,11.40
2023-03-02T05:12:04.760Z,12.70
2023-03-02T05:14:32.956Z,9.20
2023-03-02T05:17:06.082Z,10.30
2023-03-02T05:19:34.728Z,17.00
2023-03-02T05:22:02.409Z,11.00
2023-03-02T05:24:30.083Z,8.50
2023-03-02T05:26:58.042Z,11.10
2023-03-02T05:29:25.811Z,7.10
2023-03-02T05:31:54.104Z,11.20
2023-03-02T05:34:22.256Z,10.40
2023-03-02T05:36:49.858Z,15.60
2023-03-02T05:39:19.738Z,14.80
2023-03-02T05:41:47.503Z,16.10
2023-03-02T05:44:15.125Z,15.00
2023-03-02T05:46:43.135Z,18.40
2023-03-02T05:49:10.845Z,13.90
2023-03-02T05:51:39.133Z,12.60
2023-03-02T05:54:07.184Z,9.60
2023-03-02T05:56:34.990Z,11.10
2023-03-02T05:59:02.768Z,10.30
2023-03-02T06:01:33.097Z,9.60
2023-03-02T06:04:00.964Z,11.00
2023-03-02T06:06:29.019Z,16.50
2023-03-02T06:08:57.959Z,13.40
2023-03-02T06:11:25.657Z,14.40
2023-03-02T06:13:53.856Z,14.00
2023-03-02T06:16:21.818Z,8.30
2023-03-02T06:18:50.425Z,12.00
2023-03-02T06:21:18.652Z,14.00
2023-03-02T06:23:47.018Z,11.20
2023-03-02T06:26:14.769Z,10.30
2023-03-02T06:28:52.104Z,10.00
2023-03-02T06:31:21.804Z,11.50
2023-03-02T06:33:49.582Z,11.70
2023-03-02T06:36:17.378Z,13.30
2023-03-02T06:38:45.480Z,13.60
2023-03-02T06:41:13.300Z,12.80
2023-03-02T06:43:40.866Z,9.30
2023-03-02T06:46:08.808Z,12.00
2023-03-02T06:48:36.542Z,13.10
2023-03-02T06:51:04.376Z,15.10
2023-03-02T06:53:32.519Z,9.50
2023-03-02T06:56:00.235Z,18.60
2023-03-02T06:58:28.011Z,10.50
2023-03-02T07:00:55.722Z,13.20
2023-03-02T07:03:30.656Z,10.40
2023-03-02T07:05:58.476Z,11.90
2023-03-02T07:08:28.919Z,10.10
2023-03-02T07:10:56.604Z,13.60
2023-03-02T07:13:24.263Z,14.20
2023-03-02T07:15:59.670Z,10.60
2023-03-02T07:18:27.276Z,10.80
2023-03-02T07:20:54.938Z,10.90
2023-03-02T07:23:23.539Z,10.10
2023-03-02T07:25:51.210Z,11.20
2023-03-02T07:28:21.499Z,10.70
2023-03-02T07:30:49.668Z,12.60
2023-03-02T07:33:17.397Z,13.70
2023-03-02T07:35:45.381Z,6.60
2023-03-02T07:38:13.049Z,13.30
2023-03-02T07:40:41.657Z,8.40
2023-03-02T07:43:10.623Z,10.30
2023-03-02T07:45:38.346Z,11.90
2023-03-02T07:48:06.151Z,11.30
2023-03-02T07:50:38.542Z,10.50
2023-03-02T07:53:06.688Z,9.10
2023-03-02T07:55:34.359Z,9.40
2023-03-02T07:58:02.056Z,10.50
2023-03-02T08:00:29.833Z,10.10
2023-03-02T08:02:57.496Z,6.80
2023-03-02T08:05:28.628Z,8.60
2023-03-02T08:07:56.817Z,9.00
2023-03-02T08:10:24.374Z,10.20
2023-03-02T08:12:52.006Z,7.50
2023-03-02T08:15:23.380Z,11.50
2023-03-02T08:17:51.343Z,5.40
2023-03-02T08:20:21.574Z,11.10
2023-03-02T08:22:52.049Z,10.80
2023-03-02T08:25:20.419Z,6.60
2023-03-02T08:27:48.055Z,7.30
2023-03-02T08:30:15.795Z,6.70
2023-03-02T08:32:43.379Z,7.00
2023-03-02T08:35:12.701Z,8.00
2023-03-02T08:37:41.696Z,9.10
2023-03-02T08:40:10.518Z,7.60
2023-03-02T08:42:38.599Z,6.50
2023-03-02T08:45:08.141Z,7.40
2023-03-02T08:50:07.065Z,6.00
2023-03-02T08:52:34.862Z,12.60
2023-03-02T08:55:03.810Z,7.60
2023-03-02T08:57:31.943Z,5.60
2023-03-02T08:59:59.348Z,8.90
2023-03-02T09:02:27.061Z,9.90
2023-03-02T09:04:55.454Z,8.20
2023-03-02T09:07:23.550Z,11.20
2023-03-02T09:09:54.244Z,8.20
2023-03-02T09:12:21.745Z,8.80
2023-03-02T09:14:50.356Z,8.30
2023-03-02T09:17:19.819Z,9.80
2023-03-02T09:19:47.432Z,8.30
2023-03-02T09:22:15.019Z,9.10
2023-03-02T09:24:42.549Z,7.30
2023-03-02T09:27:10.187Z,10.50
2023-03-02T09:29:37.536Z,7.70
2023-03-02T09:32:05.950Z,6.80
2023-03-02T09:34:33.691Z,10.90
2023-03-02T09:37:01.501Z,10.10
2023-03-02T09:39:29.361Z,11.20
2023-03-02T09:42:27.139Z,8.50
2023-03-02T09:45:09.272Z,8.40
2023-03-02T09:48:05.692Z,7.00
2023-03-02T09:50:39.476Z,8.90
2023-03-02T09:53:25.023Z,7.40
2023-03-02T09:56:02.077Z,5.80
2023-03-02T09:58:35.754Z,11.00
2023-03-02T10:01:06.667Z,7.80
2023-03-02T10:03:45.574Z,7.00
2023-03-02T10:06:14.350Z,9.50
2023-03-02T10:08:43.213Z,10.40
2023-03-02T10:11:33.965Z,5.80
2023-03-02T10:14:06.884Z,10.10
2023-03-02T10:16:38.395Z,7.10
2023-03-02T10:19:26.220Z,9.50
2023-03-02T10:22:07.522Z,11.40
2023-03-02T10:24:36.382Z,9.60
2023-03-02T10:27:20.328Z,7.40
2023-03-02T10:29:53.865Z,10.80
2023-03-02T10:32:23.360Z,13.70
2023-03-02T10:34:53.453Z,6.30
2023-03-02T10:37:25.577Z,7.80
2023-03-02T10:39:56.754Z,8.30
2023-03-02T10:42:33.876Z,7.60
2023-03-02T10:45:23.822Z,14.80
2023-03-02T10:48:05.850Z,7.50
2023-03-02T10:50:33.669Z,8.10
2023-03-02T10:53:04.174Z,9.30
2023-03-02T10:55:33.424Z,6.70
2023-03-02T10:58:07.085Z,8.40
2023-03-02T11:00:35.059Z,9.20
2023-03-02T11:03:05.990Z,7.40
2023-03-02T11:05:35.759Z,10.60
2023-03-02T11:08:27.237Z,7.00
2023-03-02T11:11:00.989Z,10.70
2023-03-02T11:13:35.842Z,10.80
2023-03-02T11:16:05.072Z,6.80
2023-03-02T11:18:43.116Z,6.70
2023-03-02T11:21:12.113Z,6.20
2023-03-02T11:24:13.805Z,5.30
2023-03-02T11:26:46.035Z,5.10
2023-03-02T11:29:42.868Z,11.80
2023-03-02T11:32:22.594Z,7.40
2023-03-02T11:35:09.014Z,7.10
2023-03-02T11:37:49.821Z,6.60
2023-03-02T11:40:19.641Z,9.40
2023-03-02T11:42:48.428Z,7.30
2023-03-02T11:45:29.504Z,8.20
2023-03-02T11:48:09.142Z,10.10
2023-03-02T11:50:51.898Z,8.30
2023-03-02T11:53:20.423Z,9.30
2023-03-02T11:55:49.294Z,8.80
2023-03-02T11:58:21.152Z,9.50
2023-03-02T12:00:49.219Z,6.20
2023-03-02T12:03:22.933Z,6.00
2023-03-02T12:05:53.252Z,7.00
2023-03-02T12:08:22.322Z,5.90
2023-03-02T12:11:00.744Z,8.60
2023-03-02T12:13:30.146Z,6.80
2023-03-02T12:15:57.733Z,9.70
2023-03-02T12:18:30.044Z,7.30
2023-03-02T12:21:12.538Z,7.90
2023-03-02T12:23:43.809Z,8.50
2023-03-02T12:26:20.318Z,7.20
2023-03-02T12:29:11.207Z,9.30
2023-03-02T12:31:47.452Z,9.40
2023-03-02T12:34:24.462Z,8.00
2023-03-02T12:36:58.456Z,8.30
2023-03-02T12:39:38.728Z,7.60
2023-03-02T12:42:12.774Z,8.90
2023-03-02T12:44:50.152Z,7.80
2023-03-02T12:47:25.827Z,8.50
2023-03-02T12:50:14.262Z,8.40
2023-03-02T12:52:42.235Z,7.90
2023-03-02T12:55:19.028Z,7.20
2023-03-02T12:57:52.261Z,8.00
2023-03-02T13:00:22.536Z,6.50
2023-03-02T13:02:53.081Z,7.60
2023-03-02T13:05:24.025Z,6.60
2023-03-02T13:08:01.345Z,7.40
2023-03-02T13:10:41.091Z,7.30
2023-03-02T13:13:24.813Z,6.30
2023-03-02T13:15:54.918Z,8.20
2023-03-02T13:18:23.433Z,6.70
2023-03-02T13:20:52.050Z,6.60
2023-03-02T13:23:19.641Z,6.30
2023-03-02T13:25:48.732Z,5.50
2023-03-02T13:28:36.283Z,5.00
2023-03-02T13:31:21.105Z,6.10
2023-03-02T13:33:50.285Z,5.50
2023-03-02T13:36:26.499Z,9.30
2023-03-02T13:38:56.248Z,5.20
2023-03-02T13:41:28.271Z,7.30
2023-03-02T13:43:57.686Z,6.90
2023-03-02T13:46:28.472Z,5.30
2023-03-02T13:49:11.331Z,9.30
2023-03-02T13:51:42.388Z,5.40
2023-03-02T13:54:17.396Z,7.00
2023-03-02T13:56:44.775Z,6.80
2023-03-02T13:59:15.970Z,6.30
2023-03-02T14:01:43.994Z,8.80
2023-03-02T14:04:12.588Z,18.00
2023-03-02T14:06:40.451Z,12.10
2023-03-02T14:09:07.992Z,10.00
2023-03-02T14:11:37.580Z,7.40
2023-03-02T14:14:06.112Z,7.90
2023-03-02T14:16:37.019Z,6.30
2023-03-02T14:19:13.361Z,5.80
2023-03-02T14:24:10.783Z,10.60
2023-03-02T14:26:40.538Z,5.70
2023-03-02T14:29:28.027Z,7.80
2023-03-02T14:31:56.693Z,6.60
2023-03-02T14:34:24.372Z,7.20
2023-03-02T14:36:53.910Z,5.40
2023-03-02T14:39:34.507Z,6.20
2023-03-02T14:42:02.221Z,7.80
2023-03-02T14:44:35.481Z,10.40
2023-03-02T14:47:04.231Z,7.60
2023-03-02T14:49:32.214Z,6.30
2023-03-02T14:52:03.751Z,6.20
2023-03-02T14:54:59.078Z,6.60
2023-03-02T14:57:28.712Z,7.10
2023-03-02T14:59:59.506Z,9.10
2023-03-02T15:02:27.359Z,7.80
2023-03-02T15:05:13.713Z,8.30
2023-03-02T15:07:44.236Z,10.20
2023-03-02T15:10:17.358Z,6.70
2023-03-02T15:12:45.049Z,11.70
2023-03-02T15:15:13.760Z,11.80
2023-03-02T15:17:41.305Z,6.20
2023-03-02T15:20:14.803Z,10.20
2023-03-02T15:22:44.335Z,9.10
2023-03-02T15:25:11.847Z,6.70
2023-03-02T15:27:41.355Z,12.40
2023-03-02T15:30:09.984Z,9.50
2023-03-02T15:32:38.100Z,11.60
2023-03-02T15:35:06.188Z,12.70
2023-03-02T15:37:33.714Z,18.50
2023-03-02T15:40:01.413Z,16.80
2023-03-02T15:42:29.175Z,22.40
2023-03-02T15:45:00.171Z,19.20
2023-03-02T15:47:27.739Z,23.00
2023-03-02T15:49:55.149Z,22.10
2023-03-02T15:52:22.652Z,30.40
2023-03-02T15:54:52.253Z,26.20
2023-03-02T15:57:19.796Z,30.40
2023-03-02T15:59:47.405Z,29.80
2023-03-02T16:02:18.007Z,38.00
2023-03-02T16:04:50.320Z,45.60
2023-03-02T16:07:17.741Z,75.10
2023-03-02T16:09:46.126Z,54.00
2023-03-02T16:12:18.317Z,29.30
2023-03-02T16:14:49.977Z,17.40
2023-03-02T16:17:19.281Z,20.90
2023-03-02T16:19:47.409Z,17.10
2023-03-02T16:22:15.076Z,13.10
2023-03-02T16:24:42.638Z,14.10
2023-03-02T16:27:10.373Z,13.90
2023-03-02T16:29:37.961Z,12.80
2023-03-02T16:32:06.446Z,16.20
2023-03-02T16:34:34.920Z,13.90
2023-03-02T16:37:03.228Z,16.30
2023-03-02T16:39:32.707Z,16.50
2023-03-02T16:42:00.378Z,12.70
2023-03-02T16:44:28.056Z,12.10
2023-03-02T16:46:57.322Z,9.80
2023-03-02T16:49:29.941Z,9.80
2023-03-02T16:51:58.485Z,11.40
2023-03-02T16:54:26.148Z,11.20
2023-03-02T16:56:54.571Z,12.90
2023-03-02T16:59:25.784Z,13.10
2023-03-02T17:01:53.563Z,15.10
2023-03-02T17:04:21.917Z,11.20
2023-03-02T17:07:00.460Z,13.00
2023-03-02T17:09:29.077Z,14.50
2023-03-02T17:11:57.006Z,18.70
2023-03-02T17:14:25.274Z,17.80
2023-03-02T17:16:56.152Z,12.10
2023-03-02T17:19:26.859Z,13.70
2023-03-02T17:21:59.412Z,12.80
2023-03-02T17:24:27.710Z,12.20
2023-03-02T17:26:55.496Z,13.60
2023-03-02T17:29:23.463Z,20.50
2023-03-02T17:31:51.273Z,15.80
2023-03-02T17:34:21.431Z,10.80
2023-03-02T17:36:49.091Z,18.30
2023-03-02T17:39:17.002Z,12.30
2023-03-02T17:41:44.864Z,23.60
2023-03-02T17:44:12.929Z,19.40
2023-03-02T17:46:42.788Z,16.90
2023-03-02T17:49:10.701Z,25.50
2023-03-02T17:51:38.397Z,17.00
2023-03-02T17:54:06.060Z,12.20
2023-03-02T17:56:33.995Z,14.80
2023-03-02T17:59:03.046Z,12.70
2023-03-02T18:01:32.112Z,12.20
2023-03-02T18:04:00.231Z,12.20
2023-03-02T18:06:28.112Z,11.40
2023-03-02T18:08:55.846Z,14.90
2023-03-02T18:11:23.687Z,9.80
2023-03-02T18:13:54.665Z,13.20
2023-03-02T18:16:30.715Z,14.60
2023-03-02T18:18:59.450Z,14.30
2023-03-02T18:21:27.517Z,14.80
2023-03-02T18:23:55.127Z,13.00
2023-03-02T18:26:24.207Z,13.50
2023-03-02T18:28:54.787Z,13.90
2023-03-02T18:31:22.433Z,14.40
2023-03-02T18:33:50.218Z,14.60
2023-03-02T18:36:18.153Z,13.80
2023-03-02T18:38:45.759Z,15.70
2023-03-02T18:41:13.426Z,16.20
2023-03-02T18:43:41.467Z,12.60
2023-03-02T18:46:24.787Z,15.00
2023-03-02T18:48:53.198Z,13.70
2023-03-02T18:51:21.939Z,16.30
2023-03-02T18:53:50.719Z,16.50
2023-03-02T18:56:18.746Z,14.10
2023-03-02T18:58:47.102Z,19.20
2023-03-02T19:01:15.057Z,14.20
2023-03-02T19:03:45.509Z,15.30
2023-03-02T19:06:13.790Z,17.30
2023-03-02T19:11:22.899Z,20.90
2023-03-02T19:13:50.673Z,21.00
2023-03-02T19:16:19.398Z,16.20
2023-03-02T19:18:48.369Z,20.10
2023-03-02T19:21:16.893Z,21.90
2023-03-02T19:23:46.221Z,23.10
2023-03-02T19:26:15.108Z,21.50
2023-03-02T19:28:47.385Z,20.30
2023-03-02T19:31:17.502Z,18.10
2023-03-02T19:33:45.832Z,26.80
2023-03-02T19:36:13.522Z,23.70
2023-03-02T19:38:42.825Z,30.30
2023-03-02T19:41:12.913Z,30.10
2023-03-02T19:43:42.482Z,27.50
2023-03-02T19:46:13.839Z,27.60
2023-03-02T19:48:42.227Z,29.90
2023-03-02T19:51:10.969Z,28.90
2023-03-02T19:53:38.766Z,30.10
2023-03-02T19:56:08.887Z,27.60
2023-03-02T19:58:46.382Z,30.50
2023-03-02T20:01:21.340Z,33.00
2023-03-02T20:03:51.465Z,33.30
2023-03-02T20:06:20.681Z,31.50
2023-03-02T20:08:48.757Z,27.30
2023-03-02T20:11:17.481Z,28.30
2023-03-02T20:13:45.322Z,21.30
2023-03-02T20:16:16.256Z,19.90
2023-03-02T20:18:45.336Z,22.30
2023-03-02T20:21:13.044Z,20.60
2023-03-02T20:23:40.935Z,20.30
2023-03-02T20:26:08.779Z,17.40
2023-03-02T20:28:36.825Z,19.30
2023-03-02T20:31:08.681Z,17.50
2023-03-02T20:33:41.236Z,21.50
2023-03-02T20:36:08.940Z,21.50
2023-03-02T20:38:43.510Z,20.10
2023-03-02T20:41:12.803Z,18.80
2023-03-02T20:43:41.724Z,25.20
2023-03-02T20:46:22.376Z,19.90
2023-03-02T20:48:50.287Z,17.50
2023-03-02T20:51:19.396Z,20.10
2023-03-02T20:53:52.913Z,20.60
2023-03-02T20:56:20.725Z,20.50
2023-03-02T20:58:48.660Z,19.00
2023-03-02T21:01:17.057Z,18.20
2023-03-02T21:03:44.853Z,20.80
2023-03-02T21:06:12.622Z,22.50
2023-03-02T21:08:40.848Z,19.10
2023-03-02T21:11:15.380Z,18.60
2023-03-02T21:13:47.137Z,16.70
2023-03-02T21:16:18.258Z,16.30
2023-03-02T21:18:46.516Z,17.60
2023-03-02T21:21:15.569Z,22.20
2023-03-02T21:23:43.228Z,18.70
2023-03-02T21:26:11.854Z,20.80
2023-03-02T21:28:43.821Z,17.80
2023-03-02T21:31:16.759Z,19.50
2023-03-02T21:33:44.808Z,21.10
2023-03-02T21:36:19.144Z,17.00
2023-03-02T21:38:46.855Z,22.50
2023-03-02T21:41:14.327Z,20.70
2023-03-02T21:43:42.084Z,18.20
2023-03-02T21:46:12.539Z,20.60
2023-03-02T21:48:40.719Z,20.70
2023-03-02T21:51:11.076Z,22.70
2023-03-02T21:53:38.695Z,24.70
2023-03-02T21:56:07.469Z,23.80
2023-03-02T21:58:35.085Z,21.00
2023-03-02T22:01:03.284Z,21.70
2023-03-02T22:03:30.954Z,23.40
2023-03-02T22:05:59.283Z,20.90
2023-03-02T22:08:27.398Z,21.20
2023-03-02T22:10:55.582Z,21.30
2023-03-02T22:13:27.586Z,23.70
2023-03-02T22:16:24.162Z,22.50
2023-03-02T22:18:57.427Z,21.90
2023-03-02T22:21:38.706Z,19.30
2023-03-02T22:24:09.501Z,26.40
2023-03-02T22:26:43.541Z,19.50
2023-03-02T22:29:21.390Z,21.60
2023-03-02T22:31:50.518Z,20.50
2023-03-02T22:34:40.965Z,18.80
2023-03-02T22:37:17.363Z,23.20
2023-03-02T22:39:45.107Z,19.80
2023-03-02T22:42:20.896Z,20.00
2023-03-02T22:45:12.666Z,21.40
2023-03-02T22:47:43.040Z,21.90
2023-03-02T22:50:25.069Z,21.40
2023-03-02T22:52:54.604Z,23.00
2023-03-02T22:55:28.326Z,22.60
2023-03-02T22:57:56.933Z,17.80
2023-03-02T23:00:37.407Z,18.30
2023-03-02T23:03:21.762Z,21.60
2023-03-02T23:05:51.424Z,16.80
2023-03-02T23:10:57.457Z,17.30
2023-03-02T23:13:39.728Z,17.90
2023-03-02T23:16:19.936Z,19.20
2023-03-02T23:18:50.065Z,21.80
2023-03-02T23:21:28.265Z,18.80
2023-03-02T23:23:56.487Z,17.90
2023-03-02T23:26:23.984Z,19.70
2023-03-02T23:29:11.623Z,18.30
2023-03-02T23:31:39.742Z,17.60
2023-03-02T23:34:07.437Z,16.90
2023-03-02T23:36:37.468Z,18.70
2023-03-02T23:39:06.903Z,22.80
2023-03-02T23:41:35.864Z,20.60
2023-03-02T23:44:04.702Z,19.20
2023-03-02T23:46:34.203Z,21.00
2023-03-02T23:49:03.486Z,20.20
2023-03-02T23:51:31.737Z,16.70
2023-03-02T23:54:04.739Z,17.50
2023-03-02T23:56:32.649Z,18.20
2023-03-02T23:59:00.278Z,20.60
